Time;durP1;ratioP1;P1;durP2;ratioP2;P2;SDS_P1;SDS_P2;PMS_P1;PMS_P2;Temp;Humidity;BMP_temperature;BMP_pressure;BME280_temperature;BME280_humidity;BME280_pressure;Samples;Min_cycle;Max_cycle;Signal;HPM_P1;HPM_P2
2023/02/01 00:00:34;;;;;;;;;9.25;8.00;;;;;9.65;72.61;101975.09;6272305;22;45634;-76
2023/02/01 00:02:59;;;;;;;;;9.25;8.00;;;;;9.71;72.53;101979.22;6272298;22;45449;-76
2023/02/01 00:05:25;;;;;;;;;11.25;9.50;;;;;9.67;72.60;101988.94;6271666;22;45644;-76
2023/02/01 00:07:50;;;;;;;;;13.00;10.00;;;;;9.70;72.65;101998.44;6271067;22;46396;-75
2023/02/01 00:10:16;;;;;;;;;11.25;10.25;;;;;9.68;72.49;101993.28;6244837;22;46234;-77
2023/02/01 00:12:41;;;;;;;;;5.50;5.00;;;;;9.67;72.34;101999.41;6271441;22;45765;-75
2023/02/01 00:15:07;;;;;;;;;11.25;8.50;;;;;9.61;72.37;101999.69;6270930;22;46505;-78
2023/02/01 00:17:32;;;;;;;;;11.75;8.00;;;;;9.62;72.54;101995.31;6244069;22;46005;-78
2023/02/01 00:23:19;;;;;;;;;11.75;10.50;;;;;9.62;72.44;101983.09;6271845;22;45642;-78
2023/02/01 00:25:46;;;;;;;;;6.75;6.00;;;;;9.63;72.38;101990.03;6271876;22;45620;-74
2023/02/01 00:28:12;;;;;;;;;11.50;8.50;;;;;9.59;72.48;101971.91;6271039;22;46128;-75
2023/02/01 00:30:38;;;;;;;;;8.00;7.00;;;;;9.64;72.17;101977.78;6271166;22;45798;-76
2023/02/01 00:33:05;;;;;;;;;9.75;9.75;;;;;9.54;72.30;101956.44;6271330;22;45990;-74
2023/02/01 00:35:30;;;;;;;;;11.00;10.00;;;;;9.62;72.06;101970.00;6271321;22;45574;-73
2023/02/01 00:37:58;;;;;;;;;6.75;6.75;;;;;9.61;72.14;101970.91;6265916;22;46935;-75
2023/02/01 00:40:23;;;;;;;;;6.50;5.00;;;;;9.60;72.25;101973.63;6268726;22;45753;-74
2023/02/01 00:42:49;;;;;;;;;9.75;6.50;;;;;9.57;72.06;101960.66;6271935;22;45800;-76
2023/02/01 00:45:14;;;;;;;;;8.50;7.00;;;;;9.62;72.10;101963.91;6271501;22;46371;-77
2023/02/01 00:47:39;;;;;;;;;11.00;7.75;;;;;9.60;72.01;101973.63;6271450;22;46316;-75
2023/02/01 00:53:27;;;;;;;;;10.00;7.50;;;;;9.49;72.00;101963.63;6271695;22;45678;-76
2023/02/01 00:55:52;;;;;;;;;7.75;6.00;;;;;9.43;72.28;101956.06;6272697;22;45666;-75
2023/02/01 00:58:18;;;;;;;;;7.75;7.75;;;;;9.42;71.90;101956.13;6271552;22;46173;-77
2023/02/01 01:00:43;;;;;;;;;6.25;6.25;;;;;9.40;72.35;101974.47;6272246;22;45732;-77
2023/02/01 01:03:18;;;;;;;;;7.00;6.75;;;;;9.42;72.18;101977.03;6271258;22;45424;-74
2023/02/01 01:09:07;;;;;;;;;4.50;3.00;;;;;9.39;72.26;101972.81;6272049;22;45595;-76
2023/02/01 01:11:38;;;;;;;;;9.50;7.50;;;;;9.38;72.27;101975.50;6271802;22;45852;-78
2023/02/01 01:14:05;;;;;;;;;7.25;7.00;;;;;9.41;72.24;101986.66;6274044;22;45635;-76
2023/02/01 01:16:32;;;;;;;;;10.75;7.50;;;;;9.39;72.32;101993.75;6271371;22;46446;-76
2023/02/01 01:18:58;;;;;;;;;10.00;10.00;;;;;9.38;72.06;101991.19;6243329;22;47535;-77
2023/02/01 01:21:24;;;;;;;;;8.00;7.25;;;;;9.35;72.36;101986.91;6270824;22;45817;-72
2023/02/01 01:23:50;;;;;;;;;11.00;9.00;;;;;9.34;72.52;101993.06;6270962;22;45451;-73
2023/02/01 01:26:22;;;;;;;;;6.75;5.50;;;;;9.33;72.41;101987.91;6271417;22;46385;-75
2023/02/01 01:28:48;;;;;;;;;7.50;6.75;;;;;9.31;72.33;101984.50;6271651;22;45627;-75
2023/02/01 01:31:15;;;;;;;;;10.75;7.00;;;;;9.34;72.46;101992.25;6243408;22;45483;-74
2023/02/01 01:33:41;;;;;;;;;7.50;6.75;;;;;9.28;72.41;101981.09;6270951;22;45689;-75
2023/02/01 01:39:29;;;;;;;;;2.50;2.50;;;;;9.34;72.22;101990.44;6271155;22;45686;-72
2023/02/01 01:41:54;;;;;;;;;8.75;6.50;;;;;9.33;71.93;101990.53;6244085;22;45636;-73
2023/02/01 01:45:14;;;;;;;;;8.00;6.75;;;;;9.36;72.16;101987.78;6270369;22;45841;-75
2023/02/01 01:47:48;;;;;;;;;7.25;7.25;;;;;9.33;72.03;101999.22;6146356;23;46384;-75
2023/02/01 01:50:18;;;;;;;;;6.75;6.00;;;;;9.31;71.66;102006.28;6146591;23;46146;-73
2023/02/01 01:52:48;;;;;;;;;6.50;5.25;;;;;9.24;71.68;102000.47;6146313;23;45741;-73
2023/02/01 01:55:16;;;;;;;;;7.75;6.75;;;;;9.30;71.51;102008.94;6122193;23;45772;-74
2023/02/01 01:57:47;;;;;;;;;6.50;3.50;;;;;9.34;70.96;102011.38;6147143;23;45870;-75
2023/02/01 02:00:16;;;;;;;;;6.00;6.00;;;;;9.33;70.67;102009.69;6146155;23;46416;-72
2023/02/01 02:02:46;;;;;;;;;4.50;2.50;;;;;9.34;70.06;102007.94;6121200;23;45836;-75
2023/02/01 02:05:13;;;;;;;;;5.50;3.00;;;;;9.30;69.71;102003.72;6146891;23;45667;-75
2023/02/01 02:07:46;;;;;;;;;3.00;3.00;;;;;9.30;69.39;102009.81;6146675;23;46532;-75
2023/02/01 02:10:13;;;;;;;;;2.25;1.75;;;;;9.37;68.61;102029.56;6146130;23;46112;-75
2023/02/01 02:12:40;;;;;;;;;5.25;2.00;;;;;9.40;68.53;102025.94;6146514;23;45721;-73
2023/02/01 02:15:11;;;;;;;;;4.50;3.00;;;;;9.41;68.17;102019.81;6146476;23;45581;-73
2023/02/01 02:17:45;;;;;;;;;2.75;2.00;;;;;9.44;68.11;102004.00;6147584;23;45557;-76
2023/02/01 02:20:28;;;;;;;;;1.75;1.75;;;;;9.45;67.38;102009.13;6147265;23;46021;-75
2023/02/01 02:23:19;;;;;;;;;3.50;2.75;;;;;9.45;67.38;102001.28;6271985;22;45469;-73
2023/02/01 02:26:22;;;;;;;;;2.00;1.75;;;;;9.48;67.02;102002.94;6244871;22;45574;-77
2023/02/01 02:29:21;;;;;;;;;3.00;2.00;;;;;9.51;66.86;102010.63;6273413;22;45593;-75
2023/02/01 02:32:10;;;;;;;;;2.25;2.00;;;;;9.50;66.96;102001.13;6245324;22;47073;-77
2023/02/01 02:34:39;;;;;;;;;4.00;3.00;;;;;9.49;66.93;102010.72;6244360;22;45776;-74
2023/02/01 02:37:53;;;;;;;;;5.75;2.75;;;;;9.50;67.16;101993.25;6272733;22;45744;-76
2023/02/01 02:40:32;;;;;;;;;5.50;3.00;;;;;9.53;67.06;101995.72;6147695;23;46772;-77
2023/02/01 02:54:45;;;;;;;;;2.25;2.00;;;;;9.53;66.69;101978.28;6088142;23;45804;-76
2023/02/01 02:55:29;;;;;;;;;5.00;2.00;;;;;9.52;66.54;101991.41;6118410;23;46041;-74
2023/02/01 03:09:37;;;;;;;;;5.00;2.50;;;;;9.43;66.19;102020.59;6117657;23;45510;-72
2023/02/01 03:15:10;;;;;;;;;3.00;3.00;;;;;9.40;66.14;102018.94;6105683;23;45581;-75
2023/02/01 03:17:39;;;;;;;;;6.25;5.00;;;;;9.35;65.85;102007.00;6142624;23;46038;-74
2023/02/01 03:20:09;;;;;;;;;3.00;2.00;;;;;9.36;65.78;102003.47;6147856;23;45908;-75
2023/02/01 03:25:59;;;;;;;;;2.00;1.75;;;;;9.39;65.49;102014.66;6186493;22;45957;-74
2023/02/01 03:28:28;;;;;;;;;3.25;2.00;;;;;9.40;65.39;102013.72;6271885;22;46155;-74
2023/02/01 03:30:54;;;;;;;;;5.00;2.75;;;;;9.40;65.13;102007.63;6271845;22;45573;-76
2023/02/01 03:33:22;;;;;;;;;3.00;2.50;;;;;9.39;65.38;102001.59;6271857;22;45400;-73
2023/02/01 03:36:06;;;;;;;;;1.50;1.50;;;;;9.40;64.84;101997.19;6271812;22;45670;-75
2023/02/01 03:39:03;;;;;;;;;4.00;2.50;;;;;9.38;64.81;102010.34;6272442;22;45945;-74
2023/02/01 03:41:50;;;;;;;;;2.00;2.00;;;;;9.37;64.80;102019.09;6271687;22;45438;-76
2023/02/01 03:44:22;;;;;;;;;4.00;2.75;;;;;9.39;64.41;102019.03;6272472;22;45697;-74
2023/02/01 03:47:03;;;;;;;;;4.00;2.50;;;;;9.37;64.18;102018.25;6272410;22;45605;-74
2023/02/01 03:50:09;;;;;;;;;2.25;1.75;;;;;9.35;64.09;102012.22;6272633;22;45477;-72
2023/02/01 03:52:48;;;;;;;;;2.00;1.00;;;;;9.32;64.21;102010.59;6271320;22;45460;-75
2023/02/01 03:55:20;;;;;;;;;3.25;2.75;;;;;9.37;63.64;102013.00;6272109;22;45546;-73
2023/02/01 03:58:08;;;;;;;;;1.75;1.75;;;;;9.36;63.54;102008.69;6271757;22;46359;-78
2023/02/01 04:00:33;;;;;;;;;1.50;1.25;;;;;9.27;63.40;101989.03;6252270;22;46373;-74
2023/02/01 04:02:59;;;;;;;;;5.25;1.75;;;;;9.37;63.23;101999.94;6272177;22;45612;-76
2023/02/01 04:05:24;;;;;;;;;5.25;2.00;;;;;9.35;63.07;102002.59;6244519;22;45523;-78
2023/02/01 04:07:50;;;;;;;;;2.00;2.00;;;;;9.38;62.85;102017.34;6272842;22;45963;-77
2023/02/01 04:10:16;;;;;;;;;3.00;2.75;;;;;9.33;62.95;101996.63;6271326;22;47201;-76
2023/02/01 04:12:42;;;;;;;;;2.75;1.50;;;;;9.37;62.71;102008.63;6272008;22;45800;-76
2023/02/01 04:15:07;;;;;;;;;3.00;2.75;;;;;9.34;62.49;101997.47;6271403;22;45792;-77
2023/02/01 04:17:33;;;;;;;;;5.00;2.00;;;;;9.32;62.72;101992.28;6271962;22;46124;-75
2023/02/01 04:19:58;;;;;;;;;3.00;2.00;;;;;9.38;62.41;101997.25;6271446;22;45491;-74
2023/02/01 04:22:24;;;;;;;;;3.00;3.00;;;;;9.35;62.67;101989.53;6244446;22;45554;-76
2023/02/01 04:24:49;;;;;;;;;3.00;3.00;;;;;9.45;62.57;101997.81;6272335;22;45419;-74
2023/02/01 04:27:15;;;;;;;;;2.50;2.00;;;;;9.45;62.27;102001.28;6270982;22;52458;-79
2023/02/01 04:29:41;;;;;;;;;1.75;1.00;;;;;9.48;62.36;102002.94;6272123;22;46053;-77
2023/02/01 04:32:07;;;;;;;;;2.75;2.00;;;;;9.44;61.98;102007.47;6272179;22;45665;-79
2023/02/01 04:34:32;;;;;;;;;2.00;1.00;;;;;9.43;62.08;102011.00;6272221;22;45686;-73
2023/02/01 04:36:57;;;;;;;;;5.25;2.75;;;;;9.42;62.11;102013.66;6271397;22;45578;-74
2023/02/01 04:39:23;;;;;;;;;3.00;2.00;;;;;9.42;62.20;102021.50;6271455;22;45602;-74
2023/02/01 04:41:48;;;;;;;;;3.00;1.00;;;;;9.39;62.26;102008.56;6270730;22;45440;-74
2023/02/01 04:44:16;;;;;;;;;2.00;2.00;;;;;9.35;62.43;101996.53;6271037;22;45616;-73
2023/02/01 04:46:42;;;;;;;;;2.00;1.00;;;;;9.24;62.51;101995.22;6271845;22;45830;-74
2023/02/01 04:49:09;;;;;;;;;1.25;1.00;;;;;9.25;62.51;102001.31;6271900;22;45501;-71
2023/02/01 04:51:34;;;;;;;;;4.50;2.00;;;;;9.24;62.65;102005.69;6271134;22;45759;-74
2023/02/01 04:54:00;;;;;;;;;3.00;2.00;;;;;9.27;62.71;102008.19;6271956;22;45578;-72
2023/02/01 04:56:25;;;;;;;;;3.00;1.00;;;;;9.18;62.64;102005.94;6271880;22;46734;-73
2023/02/01 04:58:50;;;;;;;;;2.25;1.00;;;;;9.16;62.65;102015.66;6271082;22;47057;-77
2023/02/01 05:01:16;;;;;;;;;3.00;1.00;;;;;9.17;62.89;102032.19;6270860;22;45578;-76
2023/02/01 05:03:41;;;;;;;;;4.50;1.50;;;;;9.12;63.04;102021.06;6272277;22;45712;-73
2023/02/01 05:06:06;;;;;;;;;2.50;1.00;;;;;9.11;62.83;102027.22;6243451;22;47272;-75
2023/02/01 05:14:37;;;;;;;;;2.75;2.00;;;;;9.02;63.28;102038.88;6271097;22;45545;-76
2023/02/01 05:17:02;;;;;;;;;6.00;2.25;;;;;9.01;63.39;102029.38;6271484;22;46952;-72
2023/02/01 05:19:28;;;;;;;;;2.00;1.25;;;;;8.91;63.30;102020.19;6271434;22;45963;-73
2023/02/01 05:21:53;;;;;;;;;1.00;0.00;;;;;8.89;63.46;102018.56;6271737;22;45544;-72
2023/02/01 05:24:21;;;;;;;;;1.50;1.00;;;;;8.92;63.36;102028.88;6271441;22;45767;-72
2023/02/01 05:26:48;;;;;;;;;6.00;3.50;;;;;8.89;63.86;102042.09;6271845;22;45602;-71
2023/02/01 05:29:14;;;;;;;;;3.00;2.75;;;;;8.85;63.48;102041.38;6243422;22;47505;-75
2023/02/01 05:31:40;;;;;;;;;5.25;2.75;;;;;8.82;63.86;102033.63;6272043;22;45739;-73
2023/02/01 05:34:06;;;;;;;;;4.00;2.00;;;;;8.79;63.88;102033.78;6271807;22;45540;-73
2023/02/01 05:36:31;;;;;;;;;3.00;2.00;;;;;8.75;63.99;102025.19;6271231;22;47131;-75
2023/02/01 05:42:18;;;;;;;;;4.25;2.00;;;;;8.79;64.03;102059.91;6271166;22;45785;-78
2023/02/01 05:44:44;;;;;;;;;3.00;2.00;;;;;8.78;64.13;102053.81;6270376;22;45684;-75
2023/02/01 05:47:10;;;;;;;;;3.75;1.50;;;;;8.78;64.16;102053.81;6271277;22;45566;-76
2023/02/01 05:49:35;;;;;;;;;2.00;1.00;;;;;8.76;64.26;102050.41;6271082;22;46110;-74
2023/02/01 05:52:01;;;;;;;;;2.00;1.25;;;;;8.75;64.27;102050.47;6272092;22;45792;-71
2023/02/01 05:57:48;;;;;;;;;3.00;1.25;;;;;8.74;64.15;102048.78;6272223;22;46009;-73
2023/02/01 06:00:14;;;;;;;;;2.00;2.00;;;;;8.69;64.42;102043.72;6272006;22;47191;-72
2023/02/01 06:02:40;;;;;;;;;1.25;1.00;;;;;8.71;64.15;102043.66;6272194;22;45526;-74
2023/02/01 06:05:06;;;;;;;;;2.75;2.00;;;;;8.69;64.35;102032.44;6272896;22;45527;-77
2023/02/01 06:07:32;;;;;;;;;1.00;1.00;;;;;8.76;64.18;102039.09;6271989;22;46564;-78
2023/02/01 06:09:57;;;;;;;;;2.00;2.00;;;;;8.74;64.18;102049.66;6272444;22;45876;-76
2023/02/01 06:12:22;;;;;;;;;3.00;2.25;;;;;8.71;64.43;102033.22;6272928;22;45552;-77
2023/02/01 06:14:48;;;;;;;;;2.25;1.00;;;;;8.71;64.35;102049.75;6272714;22;45600;-78
2023/02/01 06:17:13;;;;;;;;;5.00;3.00;;;;;8.70;64.25;102050.66;6272794;22;46756;-79
2023/02/01 06:19:40;;;;;;;;;2.00;1.75;;;;;8.72;64.32;102063.66;6272110;22;46240;-79
2023/02/01 06:22:06;;;;;;;;;5.50;2.00;;;;;8.72;64.31;102053.22;6272521;22;45834;-80
2023/02/01 06:28:08;;;;;;;;;5.75;2.50;;;;;8.56;64.28;102042.53;6276424;22;45885;-77
2023/02/01 06:30:33;;;;;;;;;3.00;1.00;;;;;8.59;64.38;102050.22;6272045;22;47145;-74
2023/02/01 06:32:58;;;;;;;;;2.25;2.00;;;;;8.60;64.31;102065.00;6271667;22;45724;-72
2023/02/01 06:35:24;;;;;;;;;2.00;2.00;;;;;8.58;64.22;102047.69;6271891;22;45533;-70
2023/02/01 06:37:49;;;;;;;;;4.50;2.00;;;;;8.58;64.50;102056.41;6271574;22;47275;-72
2023/02/01 06:40:14;;;;;;;;;2.75;2.75;;;;;8.53;64.33;102042.63;6244442;22;48245;-75
2023/02/01 06:42:40;;;;;;;;;2.00;2.00;;;;;8.57;64.43;102046.00;6272172;22;46115;-71
2023/02/01 06:45:07;;;;;;;;;3.50;1.75;;;;;8.63;64.32;102044.00;6271819;22;45799;-77
2023/02/01 06:47:32;;;;;;;;;2.00;2.00;;;;;8.62;64.31;102036.22;6272357;22;45811;-77
2023/02/01 06:49:57;;;;;;;;;2.00;2.00;;;;;8.60;64.28;102032.81;6272275;22;45562;-71
2023/02/01 06:52:22;;;;;;;;;2.00;1.00;;;;;8.63;64.27;102053.59;6271778;22;45564;-72
2023/02/01 06:58:09;;;;;;;;;2.50;2.00;;;;;8.55;64.39;102061.72;6271973;22;45535;-72
2023/02/01 07:00:35;;;;;;;;;2.75;2.00;;;;;8.52;64.23;102054.03;6272535;22;45634;-74
2023/02/01 07:03:00;;;;;;;;;3.50;3.00;;;;;8.47;64.37;102057.72;6271363;22;46032;-77
2023/02/01 07:05:26;;;;;;;;;5.75;4.00;;;;;8.52;64.45;102076.66;6244429;22;45548;-74
2023/02/01 07:07:51;;;;;;;;;2.75;2.00;;;;;8.55;64.62;102073.94;6271261;22;45613;-75
2023/02/01 07:13:39;;;;;;;;;4.50;3.25;;;;;8.58;64.12;102055.53;6271991;22;45719;-73
2023/02/01 07:16:06;;;;;;;;;5.25;2.00;;;;;8.56;64.08;102065.19;6246746;22;45541;-72
2023/02/01 07:18:32;;;;;;;;;6.75;4.50;;;;;8.57;64.31;102067.75;6272825;22;46555;-73
2023/02/01 07:20:58;;;;;;;;;3.50;2.50;;;;;8.59;64.13;102086.81;6272075;22;46021;-71
2023/02/01 07:23:24;;;;;;;;;2.25;2.00;;;;;8.52;64.17;102082.75;6271517;22;45490;-72
2023/02/01 07:25:57;;;;;;;;;3.00;2.00;;;;;8.52;64.30;102089.72;6244126;22;45481;-72
2023/02/01 07:28:23;;;;;;;;;2.50;2.50;;;;;8.49;64.43;102101.13;6271441;22;45680;-73
2023/02/01 07:30:50;;;;;;;;;6.25;4.50;;;;;8.44;64.40;102084.78;6272290;22;45433;-73
2023/02/01 07:33:26;;;;;;;;;4.50;2.50;;;;;8.51;64.22;102107.16;6272133;22;45523;-73
2023/02/01 07:35:52;;;;;;;;;2.00;2.00;;;;;8.50;64.33;102104.59;6267364;22;45679;-76
2023/02/01 07:38:17;;;;;;;;;5.50;2.75;;;;;8.47;64.19;102110.81;6271339;22;47232;-74
2023/02/01 07:40:43;;;;;;;;;3.00;1.25;;;;;8.50;64.13;102117.66;6271514;22;46152;-74
2023/02/01 07:43:08;;;;;;;;;2.25;2.00;;;;;8.52;64.33;102110.63;6272005;22;45626;-77
2023/02/01 07:45:35;;;;;;;;;4.50;3.50;;;;;8.49;64.28;102108.13;6271777;22;45785;-77
2023/02/01 07:48:01;;;;;;;;;6.25;2.00;;;;;8.55;64.33;102126.16;6272449;22;45644;-77
2023/02/01 07:50:27;;;;;;;;;6.00;2.75;;;;;8.53;64.29;102128.00;6272429;22;45515;-74
2023/02/01 07:52:53;;;;;;;;;6.00;3.00;;;;;8.61;64.48;102139.00;6271507;22;45549;-73
2023/02/01 07:58:41;;;;;;;;;4.25;3.50;;;;;8.64;64.16;102151.94;6271948;22;45634;-74
2023/02/01 08:01:20;;;;;;;;;0.00;0.00;;;;;8.66;64.06;102137.06;6272161;22;45895;-73
2023/02/01 08:03:50;;;;;;;;;6.00;5.00;;;;;8.61;64.19;102139.84;6271555;22;45917;-75
2023/02/01 08:06:15;;;;;;;;;5.00;5.00;;;;;8.60;64.17;102145.97;6271727;22;45807;-74
2023/02/01 08:08:40;;;;;;;;;5.75;5.50;;;;;8.68;64.27;102156.16;6271807;22;46263;-74
2023/02/01 08:11:06;;;;;;;;;5.75;3.00;;;;;8.68;64.17;102138.72;6272195;22;45523;-73
2023/02/01 08:13:34;;;;;;;;;4.75;2.75;;;;;8.72;64.06;102132.44;6271194;22;45792;-74
2023/02/01 08:16:05;;;;;;;;;7.00;4.50;;;;;8.73;64.08;102141.16;6244035;22;45470;-75
2023/02/01 08:18:31;;;;;;;;;6.00;2.75;;;;;8.62;64.16;102118.03;6243914;22;47717;-76
2023/02/01 08:20:56;;;;;;;;;6.50;3.00;;;;;8.72;64.06;102132.44;6270981;22;47107;-75
2023/02/01 08:23:22;;;;;;;;;3.50;3.00;;;;;8.72;63.98;102131.59;6271733;22;45527;-73
2023/02/01 08:29:11;;;;;;;;;2.00;1.50;;;;;8.70;63.98;102136.03;6271758;22;45881;-73
2023/02/01 08:31:40;;;;;;;;;5.00;3.00;;;;;8.70;64.29;102117.72;6271263;22;46947;-76
2023/02/01 08:34:05;;;;;;;;;6.00;4.00;;;;;8.76;63.93;102117.50;6270873;22;45508;-77
2023/02/01 08:36:31;;;;;;;;;1.75;1.25;;;;;8.77;63.86;102124.44;6272145;22;45416;-76
2023/02/01 08:38:57;;;;;;;;;4.50;3.00;;;;;8.72;63.97;102110.69;6243638;22;47846;-73
2023/02/01 08:41:25;;;;;;;;;9.25;4.50;;;;;8.78;64.16;102111.31;6272046;22;45657;-76
2023/02/01 08:43:52;;;;;;;;;5.75;2.75;;;;;8.83;63.91;102108.50;6271244;22;45800;-75
2023/02/01 08:46:17;;;;;;;;;1.75;1.50;;;;;8.84;64.22;102099.78;6271662;22;45563;-74
2023/02/01 08:48:44;;;;;;;;;5.25;4.50;;;;;8.92;63.86;102102.91;6271663;22;46498;-73
2023/02/01 08:51:13;;;;;;;;;6.00;3.50;;;;;8.93;63.80;102102.00;6244744;22;46374;-76
2023/02/01 08:53:41;;;;;;;;;6.00;3.00;;;;;8.94;63.67;102095.00;6271238;22;45773;-72
2023/02/01 08:59:27;;;;;;;;;2.25;1.00;;;;;8.89;63.75;102092.59;6271139;22;46061;-76
2023/02/01 09:01:53;;;;;;;;;2.25;2.25;;;;;8.97;63.59;102092.25;6271778;22;45511;-73
2023/02/01 09:04:18;;;;;;;;;5.25;2.25;;;;;8.97;63.38;102105.34;6271267;22;45502;-75
2023/02/01 09:06:43;;;;;;;;;9.50;5.50;;;;;8.99;63.42;102095.69;6271396;22;45758;-77
2023/02/01 09:09:09;;;;;;;;;5.00;2.50;;;;;8.97;63.30;102089.66;6270838;22;46313;-73
2023/02/01 09:11:34;;;;;;;;;2.25;2.00;;;;;9.01;63.16;102105.19;6270772;22;45986;-73
2023/02/01 09:13:59;;;;;;;;;5.75;2.75;;;;;9.00;63.04;102107.84;6271334;22;45504;-76
2023/02/01 09:16:25;;;;;;;;;5.00;3.00;;;;;9.04;63.01;102128.56;6271200;22;45754;-74
2023/02/01 09:18:50;;;;;;;;;5.25;3.50;;;;;9.05;63.04;102117.19;6271062;22;46532;-76
2023/02/01 09:21:17;;;;;;;;;3.00;2.00;;;;;8.93;62.48;102099.38;6270961;22;46199;-75
2023/02/01 09:23:42;;;;;;;;;5.00;3.00;;;;;9.05;62.86;102126.81;6270842;22;45554;-74
2023/02/01 09:29:29;;;;;;;;;12.25;4.50;;;;;9.01;62.53;102126.09;6272246;22;45588;-72
2023/02/01 09:31:54;;;;;;;;;3.00;3.00;;;;;9.14;62.58;102142.97;6272238;22;46285;-76
2023/02/01 09:34:19;;;;;;;;;7.00;3.00;;;;;9.19;62.26;102156.69;6271609;22;46100;-76
2023/02/01 09:36:45;;;;;;;;;2.00;1.25;;;;;9.19;62.00;102148.00;6272382;22;45667;-75
2023/02/01 09:39:10;;;;;;;;;2.00;2.00;;;;;9.26;62.29;102163.38;6272735;22;46589;-73
2023/02/01 09:42:17;;;;;;;;;6.00;5.00;;;;;9.29;62.00;102175.47;6272140;22;46154;-77
2023/02/01 09:45:06;;;;;;;;;6.75;3.00;;;;;9.32;62.04;102164.06;6154616;23;45908;-75
2023/02/01 09:47:32;;;;;;;;;3.00;2.50;;;;;9.34;61.61;102170.91;6178312;23;45787;-74
2023/02/01 09:50:20;;;;;;;;;1.00;1.00;;;;;9.34;61.70;102172.69;6178175;23;45562;-76
2023/02/01 09:53:42;;;;;;;;;4.00;2.50;;;;;9.40;61.69;102180.25;6178132;23;45877;-76
2023/02/01 09:56:14;;;;;;;;;4.00;2.50;;;;;9.39;61.49;102170.75;6059269;23;45702;-73
2023/02/01 09:58:55;;;;;;;;;6.75;3.00;;;;;9.39;61.61;102178.59;6036127;23;45440;-76
2023/02/01 10:01:23;;;;;;;;;2.00;2.00;;;;;9.36;61.39;102171.72;6059343;23;46314;-77
2023/02/01 10:03:51;;;;;;;;;6.25;3.00;;;;;9.39;61.54;102171.59;6058519;23;47186;-73
2023/02/01 10:06:48;;;;;;;;;3.00;2.00;;;;;9.45;61.21;102168.69;6059115;23;45442;-74
2023/02/01 10:12:46;;;;;;;;;5.50;4.00;;;;;9.50;61.03;102171.97;6030751;23;45454;-75
2023/02/01 10:15:36;;;;;;;;;3.00;2.00;;;;;9.54;61.19;102163.09;6030189;23;46942;-75
2023/02/01 10:18:25;;;;;;;;;4.25;3.00;;;;;9.56;60.57;102171.72;6036467;23;45877;-77
2023/02/01 10:21:04;;;;;;;;;2.25;2.00;;;;;9.57;60.70;102157.72;6058798;23;45521;-75
2023/02/01 10:23:59;;;;;;;;;2.50;2.25;;;;;9.66;60.41;102162.56;6059112;23;45539;-74
2023/02/01 10:26:30;;;;;;;;;5.00;2.50;;;;;9.72;60.42;102174.53;6059335;23;46321;-75
2023/02/01 10:29:01;;;;;;;;;4.50;4.50;;;;;9.76;60.16;102170.06;6091904;23;45783;-77
2023/02/01 10:31:29;;;;;;;;;4.75;3.50;;;;;9.78;60.36;102184.75;6117559;23;45484;-72
2023/02/01 10:34:01;;;;;;;;;5.50;4.25;;;;;9.79;60.10;102177.75;6117500;23;47527;-74
2023/02/01 10:36:32;;;;;;;;;7.00;5.00;;;;;9.82;60.04;102177.66;6117892;23;47277;-73
2023/02/01 10:38:59;;;;;;;;;4.75;3.50;;;;;9.83;59.94;102172.31;6117543;23;45859;-74
2023/02/01 10:41:32;;;;;;;;;4.50;2.75;;;;;9.89;59.88;102174.69;6117934;23;45749;-74
2023/02/01 10:44:00;;;;;;;;;3.00;2.00;;;;;9.88;59.66;102166.91;6117402;23;47503;-74
2023/02/01 10:46:26;;;;;;;;;3.00;2.00;;;;;9.89;59.69;102148.50;6149229;23;46262;-73
2023/02/01 10:48:56;;;;;;;;;5.50;2.25;;;;;9.99;59.59;102160.28;6178591;23;45711;-74
2023/02/01 10:51:26;;;;;;;;;11.50;6.25;;;;;10.01;59.67;102158.44;6178594;23;45836;-75
2023/02/01 10:54:11;;;;;;;;;3.00;3.00;;;;;10.09;59.62;102163.34;6178449;23;45646;-74
2023/02/01 10:56:38;;;;;;;;;3.00;1.00;;;;;10.09;59.62;102147.66;6177430;23;46667;-74
2023/02/01 10:59:16;;;;;;;;;6.25;3.00;;;;;10.14;59.71;102148.28;6272336;22;45578;-74
2023/02/01 11:01:47;;;;;;;;;4.75;2.25;;;;;10.10;59.58;102144.94;6271942;22;45449;-77
2023/02/01 11:04:15;;;;;;;;;5.50;2.00;;;;;10.13;59.20;102128.25;6270995;22;46435;-76
2023/02/01 11:06:43;;;;;;;;;2.25;1.25;;;;;10.12;59.12;102116.06;6272412;22;45895;-74
2023/02/01 11:09:10;;;;;;;;;4.50;2.50;;;;;10.21;59.31;102127.94;6271460;22;45635;-75
2023/02/01 11:11:55;;;;;;;;;6.50;2.75;;;;;10.19;59.28;102127.16;6272676;22;45519;-75
2023/02/01 11:14:40;;;;;;;;;2.00;1.00;;;;;10.26;59.05;102118.94;6269507;22;47587;-76
2023/02/01 11:17:14;;;;;;;;;3.00;2.00;;;;;10.29;59.25;102152.88;6271151;22;46150;-75
2023/02/01 11:19:55;;;;;;;;;2.25;1.00;;;;;10.27;59.00;102144.22;6272426;22;45650;-75
2023/02/01 11:22:21;;;;;;;;;7.50;3.50;;;;;10.29;59.22;102124.06;6271351;22;45402;-75
2023/02/01 11:24:46;;;;;;;;;2.75;2.00;;;;;10.28;58.90;102132.84;6271015;22;47374;-76
2023/02/01 11:27:19;;;;;;;;;3.00;2.00;;;;;10.27;59.13;102140.75;6272067;22;46230;-76
2023/02/01 11:29:49;;;;;;;;;8.00;4.25;;;;;10.26;59.26;102123.31;6271193;22;45699;-76
2023/02/01 11:32:17;;;;;;;;;4.25;2.00;;;;;10.31;59.33;102152.81;6271230;22;45799;-75
2023/02/01 11:34:51;;;;;;;;;3.50;2.25;;;;;10.31;59.27;102148.41;6269175;22;47333;-75
2023/02/01 11:37:25;;;;;;;;;4.75;3.00;;;;;10.30;59.34;102151.97;6271119;22;47347;-76
2023/02/01 11:39:55;;;;;;;;;3.50;3.00;;;;;10.29;59.50;102133.69;6270644;22;45616;-72
2023/02/01 11:42:21;;;;;;;;;5.00;3.00;;;;;10.28;59.49;102148.53;6271551;22;45438;-76
2023/02/01 11:44:47;;;;;;;;;3.00;2.50;;;;;10.27;59.41;102144.22;6271381;22;45761;-76
2023/02/01 11:47:27;;;;;;;;;5.25;2.00;;;;;10.23;59.54;102128.72;6271473;22;45614;-74
2023/02/01 11:50:02;;;;;;;;;4.75;2.75;;;;;10.29;59.53;102138.91;6270761;22;45714;-77
2023/02/01 11:52:34;;;;;;;;;3.00;3.00;;;;;10.31;59.44;102140.53;6271926;22;45440;-78
2023/02/01 11:54:59;;;;;;;;;6.25;2.00;;;;;10.36;59.64;102129.88;6271260;22;46232;-76
2023/02/01 11:57:35;;;;;;;;;5.00;3.00;;;;;10.41;59.24;102130.50;6271404;22;45599;-75
2023/02/01 12:00:12;;;;;;;;;7.75;3.50;;;;;10.40;59.21;102116.56;6271535;22;45571;-73
2023/02/01 12:03:03;;;;;;;;;4.50;3.25;;;;;10.43;59.24;102112.94;6271570;22;45748;-75
2023/02/01 12:05:31;;;;;;;;;5.50;2.00;;;;;10.46;59.27;102121.53;6271423;22;45646;-75
2023/02/01 12:08:34;;;;;;;;;3.50;2.00;;;;;10.47;59.15;102098.78;6271503;22;45991;-76
2023/02/01 12:14:36;;;;;;;;;7.25;3.75;;;;;10.47;59.11;102081.28;6271086;22;45578;-76
2023/02/01 12:17:36;;;;;;;;;5.50;3.00;;;;;10.53;59.03;102072.28;6271091;22;46581;-76
2023/02/01 12:20:14;;;;;;;;;6.00;2.00;;;;;10.52;58.92;102078.47;6271574;22;46217;-77
2023/02/01 12:22:56;;;;;;;;;4.50;2.00;;;;;10.52;58.76;102062.75;6243434;22;45765;-75
2023/02/01 12:25:22;;;;;;;;;3.50;2.75;;;;;10.60;58.82;102071.06;6243531;22;45593;-73
2023/02/01 12:31:30;;;;;;;;;3.00;2.00;;;;;10.75;58.13;102065.09;6271124;22;45580;-76
2023/02/01 12:34:28;;;;;;;;;3.75;2.00;;;;;10.84;58.23;102079.53;6270431;22;45838;-76
2023/02/01 12:37:21;;;;;;;;;4.50;3.00;;;;;10.90;58.17;102068.75;6271054;22;45805;-76
2023/02/01 12:40:07;;;;;;;;;4.75;2.75;;;;;10.98;57.60;102063.97;6146086;23;47067;-75
2023/02/01 12:42:46;;;;;;;;;4.00;3.00;;;;;11.02;57.22;102077.78;6121328;23;45959;-74
2023/02/01 12:45:14;;;;;;;;;1.25;1.00;;;;;11.02;56.97;102073.38;6156312;23;45577;-76
2023/02/01 12:47:47;;;;;;;;;2.75;2.00;;;;;11.02;56.92;102078.63;6177515;23;45545;-76
2023/02/01 12:50:22;;;;;;;;;3.75;2.50;;;;;11.05;56.90;102061.91;6151152;23;48892;-75
2023/02/01 12:52:50;;;;;;;;;3.50;2.25;;;;;11.09;56.83;102068.69;6176933;23;46134;-73
2023/02/01 12:55:27;;;;;;;;;5.50;3.00;;;;;11.07;56.41;102060.03;6177206;23;45641;-76
2023/02/01 12:58:12;;;;;;;;;6.25;2.50;;;;;11.05;56.42;102062.75;6177084;23;45644;-76
2023/02/01 13:00:43;;;;;;;;;5.50;3.00;;;;;11.02;56.56;102047.16;6176583;23;46495;-76
2023/02/01 13:03:27;;;;;;;;;3.00;2.00;;;;;11.05;56.42;102051.41;6177225;23;46711;-75
2023/02/01 13:05:59;;;;;;;;;6.50;2.00;;;;;11.06;56.46;102055.72;6178098;23;45605;-76
2023/02/01 13:08:43;;;;;;;;;3.75;3.00;;;;;11.06;56.60;102045.25;6177491;23;45687;-77
2023/02/01 13:14:52;;;;;;;;;8.00;2.00;;;;;11.04;56.53;102044.47;6176557;23;46046;-75
2023/02/01 13:17:28;;;;;;;;;3.00;3.00;;;;;11.05;56.44;102057.50;6243618;22;45663;-77
2023/02/01 13:20:05;;;;;;;;;4.75;2.00;;;;;11.00;56.21;102051.63;6270560;22;45556;-74